Time;durP1;ratioP1;P1;durP2;ratioP2;P2;SDS_P1;SDS_P2;PMS_P1;PMS_P2;Temp;Humidity;BMP_temperature;BMP_pressure;BME280_temperature;BME280_humidity;BME280_pressure;Samples;Min_cycle;Max_cycle;Signal;HPM_P1;HPM_P2
2022/06/11 00:00:04;;;;;;;0.88;0.68;;;14.50;56.60;;;;;;5006953;28;20204;-57
2022/06/11 00:02:35;;;;;;;1.50;0.60;;;14.50;56.60;;;;;;5006805;28;20208;-58
2022/06/11 00:05:06;;;;;;;0.88;0.70;;;14.50;56.60;;;;;;5010448;28;20201;-58
2022/06/11 00:07:37;;;;;;;0.93;0.50;;;14.50;56.60;;;;;;5010532;28;20696;-58
2022/06/11 00:10:11;;;;;;;2.65;0.80;;;14.60;56.60;;;;;;5011070;28;20236;-53
2022/06/11 00:12:42;;;;;;;6.43;2.35;;;14.50;56.90;;;;;;5011157;28;20704;-56
2022/06/11 00:15:13;;;;;;;3.60;1.98;;;14.60;57.40;;;;;;5019260;28;20196;-59
2022/06/11 00:17:44;;;;;;;6.93;2.20;;;14.60;57.50;;;;;;5030865;28;20220;-53
2022/06/11 00:20:15;;;;;;;8.00;1.98;;;14.60;57.50;;;;;;5031769;28;20543;-55
2022/06/11 00:22:46;;;;;;;6.93;2.17;;;14.70;57.60;;;;;;5030912;28;20211;-63
2022/06/11 00:25:18;;;;;;;4.53;1.90;;;14.70;57.50;;;;;;5029997;28;20535;-61
2022/06/11 00:27:49;;;;;;;5.57;1.98;;;14.70;57.50;;;;;;5029472;28;20216;-61
2022/06/11 00:30:21;;;;;;;4.10;1.60;;;14.80;57.40;;;;;;5029689;28;20254;-58
2022/06/11 00:32:52;;;;;;;5.95;1.77;;;14.80;57.40;;;;;;5021939;28;20220;-57
2022/06/11 00:35:23;;;;;;;4.18;1.80;;;14.80;57.90;;;;;;5009929;28;20200;-58
2022/06/11 00:37:54;;;;;;;4.72;1.92;;;14.80;57.30;;;;;;5004065;28;20220;-60
2022/06/11 00:40:30;;;;;;;3.85;1.50;;;14.80;57.30;;;;;;5004889;28;20201;-62
2022/06/11 00:43:01;;;;;;;5.20;1.92;;;14.80;57.20;;;;;;5009891;28;20211;-59
2022/06/11 00:45:37;;;;;;;3.65;1.85;;;14.80;57.20;;;;;;5010289;28;20204;-58
2022/06/11 00:48:14;;;;;;;5.15;1.52;;;14.80;57.20;;;;;;5009540;28;20213;-57
2022/06/11 00:50:48;;;;;;;3.10;1.38;;;14.80;57.20;;;;;;5010124;28;20539;-58
2022/06/11 00:53:22;;;;;;;3.72;1.70;;;14.80;57.30;;;;;;5009926;28;20308;-61
2022/06/11 00:55:54;;;;;;;4.20;1.58;;;14.80;57.20;;;;;;5010008;28;20215;-59
2022/06/11 00:58:28;;;;;;;3.90;1.83;;;14.80;57.20;;;;;;5009967;28;20212;-61
2022/06/11 01:01:01;;;;;;;1.77;1.35;;;14.80;57.20;;;;;;5010112;28;20201;-58
2022/06/11 01:03:34;;;;;;;3.22;1.35;;;14.80;57.20;;;;;;4998720;28;20204;-55
2022/06/11 01:06:13;;;;;;;3.42;1.27;;;14.90;57.20;;;;;;5000692;28;20288;-55
2022/06/11 01:08:58;;;;;;;3.65;1.52;;;14.90;57.20;;;;;;5009765;28;20232;-59
2022/06/11 01:11:52;;;;;;;4.22;1.77;;;14.90;57.30;;;;;;5009244;28;20232;-56
2022/06/11 01:14:38;;;;;;;3.35;1.65;;;14.90;57.20;;;;;;5007297;28;20225;-57
2022/06/11 01:17:17;;;;;;;4.85;1.55;;;14.90;57.20;;;;;;5009153;28;20712;-59
2022/06/11 01:20:17;;;;;;;2.10;1.40;;;14.90;57.20;;;;;;5012868;28;20284;-59
2022/06/11 01:23:18;;;;;;;3.67;1.48;;;14.90;57.30;;;;;;5009292;28;20280;-59
2022/06/11 01:26:01;;;;;;;2.45;1.50;;;14.90;57.20;;;;;;5009186;28;20205;-59
2022/06/11 01:28:50;;;;;;;3.28;1.40;;;15.00;57.30;;;;;;5009247;28;20217;-59
2022/06/11 01:31:28;;;;;;;2.83;1.30;;;15.00;57.30;;;;;;5008948;28;20197;-56
2022/06/11 01:34:06;;;;;;;2.67;1.45;;;15.00;57.20;;;;;;5008722;28;20220;-55
2022/06/11 01:36:40;;;;;;;4.15;1.30;;;15.00;57.40;;;;;;5009422;28;20208;-60
2022/06/11 01:39:19;;;;;;;3.50;1.58;;;15.00;57.40;;;;;;5011237;28;20201;-59
2022/06/11 01:41:54;;;;;;;1.70;1.17;;;15.00;57.40;;;;;;5012764;28;20193;-57
2022/06/11 01:44:28;;;;;;;2.60;1.40;;;15.00;57.40;;;;;;5012987;28;20192;-60
2022/06/11 01:47:02;;;;;;;1.83;1.10;;;15.00;57.40;;;;;;5013109;28;20201;-55
2022/06/11 01:49:41;;;;;;;2.97;1.38;;;15.00;57.50;;;;;;5012602;28;20193;-55
2022/06/11 01:52:30;;;;;;;1.83;1.10;;;15.00;57.50;;;;;;5015363;28;20653;-57
2022/06/11 01:55:09;;;;;;;3.67;1.48;;;15.00;57.50;;;;;;5012805;28;20204;-59
2022/06/11 01:58:09;;;;;;;3.35;1.30;;;15.00;57.60;;;;;;5012835;28;20220;-62
2022/06/11 02:00:43;;;;;;;1.83;1.20;;;15.10;57.70;;;;;;5012710;28;20203;-54
2022/06/11 02:03:33;;;;;;;2.78;1.20;;;15.10;57.60;;;;;;5011908;28;20594;-56
2022/06/11 02:06:30;;;;;;;3.25;1.40;;;15.10;57.70;;;;;;5012785;28;20320;-56
2022/06/11 02:09:18;;;;;;;2.78;1.00;;;15.10;57.70;;;;;;5011582;28;20227;-58
2022/06/11 02:11:54;;;;;;;3.08;1.50;;;15.10;57.60;;;;;;5012493;28;20205;-57
2022/06/11 02:14:31;;;;;;;2.40;1.20;;;15.20;57.60;;;;;;5012289;28;20700;-61
2022/06/11 02:17:08;;;;;;;2.55;1.20;;;15.20;57.60;;;;;;5012074;28;20692;-60
2022/06/11 02:19:46;;;;;;;3.08;1.23;;;15.20;57.70;;;;;;5026625;28;20196;-55
2022/06/11 02:22:22;;;;;;;2.22;1.30;;;15.20;57.70;;;;;;5031843;28;20191;-65
2022/06/11 02:24:56;;;;;;;1.60;1.10;;;15.20;57.70;;;;;;5031741;28;20199;-59
2022/06/11 02:27:29;;;;;;;3.15;1.38;;;15.30;57.70;;;;;;5031549;28;20219;-62
2022/06/11 02:30:01;;;;;;;2.50;1.15;;;15.30;57.70;;;;;;5031569;28;20207;-57
2022/06/11 02:32:33;;;;;;;2.17;1.17;;;15.30;57.60;;;;;;5031517;28;20200;-59
2022/06/11 02:35:10;;;;;;;1.75;0.95;;;15.30;57.60;;;;;;5012601;28;20236;-59
2022/06/11 02:37:43;;;;;;;2.50;1.02;;;15.30;57.60;;;;;;5012030;28;20213;-55
2022/06/11 02:40:19;;;;;;;1.50;1.05;;;15.30;57.60;;;;;;5012138;28;20200;-58
2022/06/11 02:42:54;;;;;;;2.50;1.02;;;15.40;57.50;;;;;;5011832;28;20196;-57
2022/06/11 02:45:25;;;;;;;2.47;1.00;;;15.40;57.50;;;;;;5011500;28;20210;-57
2022/06/11 02:47:56;;;;;;;1.48;1.10;;;15.40;57.50;;;;;;5011283;28;20224;-59
2022/06/11 02:50:32;;;;;;;2.42;1.00;;;15.40;57.40;;;;;;4991336;28;20205;-55
2022/06/11 02:53:04;;;;;;;2.58;1.50;;;15.40;57.30;;;;;;4992379;28;20213;-60
2022/06/11 02:55:36;;;;;;;1.98;1.33;;;15.50;57.40;;;;;;4991720;28;20205;-62
2022/06/11 02:58:08;;;;;;;1.70;0.93;;;15.50;57.40;;;;;;4991693;28;20240;-61
2022/06/11 03:00:42;;;;;;;1.70;1.00;;;15.50;57.30;;;;;;4992187;28;20201;-64
2022/06/11 03:03:13;;;;;;;1.90;1.10;;;15.50;57.30;;;;;;4993176;28;20204;-60
2022/06/11 03:05:46;;;;;;;2.67;1.05;;;15.60;57.30;;;;;;5011230;28;20204;-60
2022/06/11 03:08:17;;;;;;;2.20;1.10;;;15.60;57.30;;;;;;5004657;28;20276;-59
2022/06/11 03:10:54;;;;;;;3.97;1.15;;;15.60;57.20;;;;;;5012716;28;20247;-60
2022/06/11 03:13:25;;;;;;;1.23;0.88;;;15.70;57.20;;;;;;5028149;28;20615;-60
2022/06/11 03:15:57;;;;;;;2.88;1.20;;;15.70;57.20;;;;;;5011629;28;20228;-59
2022/06/11 03:18:31;;;;;;;1.15;0.93;;;15.70;57.20;;;;;;5014701;28;20204;-60
2022/06/11 03:21:04;;;;;;;3.95;1.35;;;15.70;57.20;;;;;;5012274;28;20223;-59
2022/06/11 03:23:35;;;;;;;2.05;0.95;;;15.80;57.30;;;;;;5012461;28;20652;-59
2022/06/11 03:26:06;;;;;;;2.53;1.08;;;15.80;57.30;;;;;;5011991;28;20204;-59
2022/06/11 03:28:37;;;;;;;1.45;0.90;;;15.80;57.30;;;;;;5011839;28;20252;-60
2022/06/11 03:31:09;;;;;;;2.40;1.08;;;15.80;57.30;;;;;;5011994;28;20216;-59
2022/06/11 03:33:40;;;;;;;1.63;0.80;;;15.90;57.40;;;;;;5011828;28;20220;-60
2022/06/11 03:36:15;;;;;;;1.92;1.00;;;15.90;57.40;;;;;;5011910;28;20201;-60
2022/06/11 03:38:47;;;;;;;2.50;1.10;;;15.90;57.30;;;;;;5010995;28;20616;-59
2022/06/11 03:41:19;;;;;;;1.85;1.00;;;15.90;57.20;;;;;;5009567;28;20204;-60
2022/06/11 03:43:49;;;;;;;1.02;0.70;;;16.00;57.20;;;;;;5011227;28;20204;-60
2022/06/11 03:46:20;;;;;;;2.42;0.90;;;16.00;57.10;;;;;;5011313;28;20219;-60
2022/06/11 03:48:52;;;;;;;2.55;0.85;;;16.00;57.00;;;;;;5011380;28;20715;-60
2022/06/11 03:51:25;;;;;;;2.25;0.98;;;16.10;57.00;;;;;;5011492;28;20197;-61
2022/06/11 03:53:56;;;;;;;1.75;1.17;;;16.10;57.00;;;;;;5012493;28;20235;-62
2022/06/11 03:56:27;;;;;;;1.38;0.80;;;16.10;56.90;;;;;;5012066;28;20562;-60
2022/06/11 03:58:58;;;;;;;1.33;0.85;;;16.10;56.80;;;;;;5010990;28;20217;-61
2022/06/11 04:01:29;;;;;;;1.30;0.90;;;16.10;56.80;;;;;;5011633;28;20196;-61
2022/06/11 04:04:01;;;;;;;1.98;1.00;;;16.20;56.70;;;;;;5023687;28;20262;-60
2022/06/11 04:06:38;;;;;;;1.98;1.15;;;16.20;56.70;;;;;;5016674;28;20201;-60
2022/06/11 04:09:13;;;;;;;1.55;1.00;;;16.20;56.70;;;;;;5011362;28;20205;-59
2022/06/11 04:11:44;;;;;;;1.67;1.02;;;16.20;56.70;;;;;;5010945;28;20192;-51
2022/06/11 04:14:15;;;;;;;1.92;0.98;;;16.20;56.80;;;;;;5011278;28;20224;-60
2022/06/11 04:16:48;;;;;;;1.58;0.90;;;16.20;56.90;;;;;;5010664;28;20203;-60
2022/06/11 04:19:21;;;;;;;1.33;0.93;;;16.20;56.90;;;;;;5012067;28;20687;-59
2022/06/11 04:21:57;;;;;;;2.10;1.17;;;16.20;56.90;;;;;;5011062;28;20203;-60
2022/06/11 04:24:29;;;;;;;1.88;1.10;;;16.30;56.90;;;;;;5010980;28;20200;-60
2022/06/11 04:27:01;;;;;;;1.98;1.05;;;16.30;56.80;;;;;;5010944;28;20197;-60
2022/06/11 04:29:38;;;;;;;2.17;1.00;;;16.30;56.70;;;;;;5028329;28;20199;-59
2022/06/11 04:32:10;;;;;;;0.88;0.68;;;16.30;57.30;;;;;;5029834;28;20196;-61
2022/06/11 04:34:41;;;;;;;2.58;0.88;;;16.30;56.70;;;;;;5030860;28;20235;-60
2022/06/11 04:37:15;;;;;;;1.00;0.77;;;16.30;56.60;;;;;;5011339;28;20213;-60
2022/06/11 04:39:48;;;;;;;2.13;0.85;;;16.30;56.60;;;;;;5010188;28;20200;-60
2022/06/11 04:42:20;;;;;;;1.27;0.75;;;16.30;56.60;;;;;;5010945;28;20274;-61
2022/06/11 04:44:51;;;;;;;1.92;0.80;;;16.30;56.60;;;;;;5010454;28;20653;-59
2022/06/11 04:47:24;;;;;;;1.65;1.00;;;16.30;56.60;;;;;;5010709;28;20220;-60
2022/06/11 04:49:56;;;;;;;1.77;0.90;;;16.30;56.50;;;;;;5010616;28;20201;-60
2022/06/11 04:52:29;;;;;;;1.58;1.05;;;16.30;56.50;;;;;;5011264;28;20201;-60
2022/06/11 04:55:00;;;;;;;1.63;0.77;;;16.30;56.60;;;;;;5010209;28;20225;-59
2022/06/11 04:57:31;;;;;;;3.17;1.10;;;16.30;56.80;;;;;;5010885;28;20239;-59
2022/06/11 05:00:02;;;;;;;1.38;0.85;;;16.30;56.80;;;;;;5010466;28;20616;-60
2022/06/11 05:02:32;;;;;;;1.15;0.70;;;16.30;56.80;;;;;;5010387;28;20205;-59
2022/06/11 05:05:03;;;;;;;1.60;0.98;;;16.30;56.80;;;;;;5010320;28;20204;-59
2022/06/11 05:07:36;;;;;;;1.38;0.98;;;16.20;56.70;;;;;;5010473;28;20220;-59
2022/06/11 05:10:08;;;;;;;1.85;1.10;;;16.20;56.70;;;;;;5009757;28;20207;-60
2022/06/11 05:12:39;;;;;;;1.30;0.90;;;16.20;56.70;;;;;;5000950;28;20198;-59
2022/06/11 05:15:11;;;;;;;2.58;1.10;;;16.20;56.70;;;;;;4995692;28;20229;-59
2022/06/11 05:17:42;;;;;;;1.55;0.93;;;16.20;56.70;;;;;;4994377;28;20225;-60
2022/06/11 05:20:15;;;;;;;1.30;0.77;;;16.20;56.70;;;;;;5012971;28;20193;-59
2022/06/11 05:22:47;;;;;;;1.05;0.70;;;16.20;56.70;;;;;;5014419;28;20197;-60
2022/06/11 05:25:19;;;;;;;1.58;0.80;;;16.20;56.80;;;;;;5014475;28;20197;-60
2022/06/11 05:27:50;;;;;;;0.60;0.50;;;16.20;56.80;;;;;;5014935;28;20220;-60
2022/06/11 05:30:23;;;;;;;1.52;0.75;;;16.20;56.80;;;;;;5014262;28;20204;-60
2022/06/11 05:32:55;;;;;;;2.47;1.00;;;16.20;56.90;;;;;;5014757;28;20207;-59
2022/06/11 05:35:28;;;;;;;1.52;0.90;;;16.20;56.90;;;;;;5014320;28;20256;-60
2022/06/11 05:38:03;;;;;;;2.35;0.80;;;16.10;56.80;;;;;;5014935;28;20216;-59
2022/06/11 05:40:38;;;;;;;1.15;0.95;;;16.10;56.90;;;;;;5015132;28;20203;-58
2022/06/11 05:43:09;;;;;;;1.00;0.80;;;16.10;56.90;;;;;;5033878;28;20196;-60
2022/06/11 05:45:45;;;;;;;1.10;0.80;;;16.10;56.90;;;;;;5032833;28;20227;-61
2022/06/11 05:48:16;;;;;;;1.20;0.77;;;16.10;56.80;;;;;;5033054;28;20224;-60
2022/06/11 05:50:49;;;;;;;1.50;0.68;;;16.10;56.60;;;;;;5020707;28;20197;-60
2022/06/11 05:53:24;;;;;;;0.60;0.60;;;16.00;56.50;;;;;;5020924;28;20207;-58
2022/06/11 05:55:58;;;;;;;0.75;0.70;;;16.00;56.50;;;;;;5032968;28;20710;-59
2022/06/11 05:58:32;;;;;;;0.70;0.70;;;16.00;56.50;;;;;;5032979;28;20216;-61
2022/06/11 06:01:04;;;;;;;1.70;0.93;;;16.00;56.40;;;;;;5033097;28;20199;-61
2022/06/11 06:03:34;;;;;;;1.90;0.70;;;16.00;56.40;;;;;;5033260;28;20195;-60
2022/06/11 06:06:05;;;;;;;0.73;0.68;;;16.00;56.60;;;;;;5023411;28;20661;-61
2022/06/11 06:08:38;;;;;;;0.82;0.73;;;15.90;56.60;;;;;;5012956;28;20219;-60
2022/06/11 06:11:08;;;;;;;1.50;0.80;;;15.90;56.60;;;;;;5014039;28;20688;-59
2022/06/11 06:13:48;;;;;;;1.20;0.77;;;15.90;57.20;;;;;;5013400;28;20197;-59
2022/06/11 06:16:21;;;;;;;1.65;0.90;;;15.90;56.70;;;;;;5013388;28;20205;-62
2022/06/11 06:18:52;;;;;;;0.95;0.80;;;15.90;56.70;;;;;;5012464;28;20221;-56
2022/06/11 06:21:26;;;;;;;1.73;0.73;;;15.80;56.70;;;;;;5029997;28;20589;-59
2022/06/11 06:23:59;;;;;;;0.95;0.73;;;15.80;56.60;;;;;;5032330;28;20203;-58
2022/06/11 06:26:29;;;;;;;1.13;0.77;;;15.80;56.70;;;;;;5032837;28;20561;-58
2022/06/11 06:29:01;;;;;;;1.50;0.82;;;15.80;56.70;;;;;;5032230;28;20221;-60
2022/06/11 06:31:32;;;;;;;1.30;0.70;;;15.80;56.80;;;;;;5032462;28;20200;-59
2022/06/11 06:34:03;;;;;;;1.38;0.80;;;15.80;56.70;;;;;;5032772;28;20200;-58
2022/06/11 06:36:34;;;;;;;0.98;0.68;;;15.80;56.70;;;;;;5018397;28;20197;-56
2022/06/11 06:39:07;;;;;;;1.55;0.85;;;15.80;56.70;;;;;;5013589;28;20220;-59
2022/06/11 06:41:38;;;;;;;0.70;0.70;;;15.70;57.20;;;;;;5012908;28;20196;-60
2022/06/11 06:44:08;;;;;;;0.73;0.60;;;15.70;56.60;;;;;;5012643;28;20665;-58
2022/06/11 06:46:39;;;;;;;0.85;0.60;;;15.70;57.20;;;;;;5012147;28;20200;-59
2022/06/11 06:49:10;;;;;;;1.20;0.98;;;15.70;56.60;;;;;;5012417;28;20204;-59
2022/06/11 06:51:41;;;;;;;1.25;0.73;;;15.60;56.60;;;;;;5012661;28;20310;-60
2022/06/11 06:54:14;;;;;;;1.00;0.80;;;15.70;56.70;;;;;;5013455;28;20243;-59
2022/06/11 06:56:45;;;;;;;1.15;0.70;;;15.70;56.70;;;;;;5013189;28;20212;-59
2022/06/11 06:59:16;;;;;;;0.65;0.60;;;15.70;56.70;;;;;;5012553;28;20197;-59
2022/06/11 07:01:47;;;;;;;0.55;0.55;;;15.60;56.60;;;;;;5012990;28;20677;-59
2022/06/11 07:04:18;;;;;;;1.08;0.70;;;15.60;56.70;;;;;;5011733;28;20199;-59
2022/06/11 07:06:48;;;;;;;1.02;0.70;;;15.60;56.70;;;;;;5011859;28;20200;-59
2022/06/11 07:09:21;;;;;;;0.68;0.57;;;15.60;56.70;;;;;;5011663;28;20227;-59
2022/06/11 07:11:51;;;;;;;0.88;0.70;;;15.60;57.40;;;;;;5012131;28;20200;-60
2022/06/11 07:14:22;;;;;;;0.88;0.70;;;15.60;56.80;;;;;;5012653;28;20200;-59
2022/06/11 07:16:58;;;;;;;1.17;0.90;;;15.60;56.80;;;;;;5012269;28;20197;-59
2022/06/11 07:19:34;;;;;;;0.65;0.55;;;15.50;56.80;;;;;;5012841;28;20223;-61
2022/06/11 07:22:10;;;;;;;0.65;0.60;;;15.50;56.70;;;;;;5011927;28;20672;-59
2022/06/11 07:24:44;;;;;;;0.70;0.60;;;15.50;56.80;;;;;;5012456;28;20204;-62
2022/06/11 07:27:18;;;;;;;1.05;0.60;;;15.50;56.80;;;;;;5015055;28;20704;-59
2022/06/11 07:29:51;;;;;;;1.42;0.65;;;15.40;56.80;;;;;;5012516;28;20204;-60
2022/06/11 07:32:23;;;;;;;1.10;0.90;;;15.40;56.80;;;;;;5012322;28;20201;-59
2022/06/11 07:34:54;;;;;;;0.80;0.75;;;15.40;56.80;;;;;;5011644;28;20295;-59
2022/06/11 07:37:25;;;;;;;0.73;0.60;;;15.50;56.90;;;;;;5011991;28;20707;-61
2022/06/11 07:39:57;;;;;;;1.30;0.70;;;15.40;56.80;;;;;;5012410;28;20201;-59
2022/06/11 07:42:28;;;;;;;1.30;0.77;;;15.40;56.80;;;;;;5012494;28;20208;-59
2022/06/11 07:44:59;;;;;;;0.57;0.55;;;15.40;56.80;;;;;;5011859;28;20204;-59
2022/06/11 07:50:17;;;;;;;0.57;0.52;;;15.40;56.80;;;;;;4992291;28;20204;-59
2022/06/11 07:52:47;;;;;;;0.98;0.55;;;15.40;56.80;;;;;;4992440;28;20263;-59
2022/06/11 07:55:20;;;;;;;0.80;0.65;;;15.40;56.90;;;;;;5000931;28;20219;-59
2022/06/11 07:57:51;;;;;;;1.17;0.88;;;15.40;56.90;;;;;;5011872;28;20217;-61
2022/06/11 08:00:26;;;;;;;0.68;0.60;;;15.30;56.90;;;;;;5011631;28;20200;-59
2022/06/11 08:02:56;;;;;;;1.65;0.90;;;15.30;56.90;;;;;;5010995;28;20679;-60
2022/06/11 08:05:27;;;;;;;1.05;0.90;;;15.30;56.90;;;;;;5012226;28;20236;-59
2022/06/11 08:07:58;;;;;;;1.45;0.68;;;15.30;56.90;;;;;;5012056;28;20855;-60
2022/06/11 08:10:31;;;;;;;1.10;0.80;;;15.30;56.90;;;;;;5011871;28;20197;-60
2022/06/11 08:13:04;;;;;;;0.70;0.55;;;15.30;56.90;;;;;;5011559;28;20211;-60
2022/06/11 08:15:34;;;;;;;0.55;0.50;;;15.30;56.90;;;;;;5011771;28;20278;-59
2022/06/11 08:18:06;;;;;;;0.82;0.63;;;15.20;57.40;;;;;;5011090;28;20586;-64
2022/06/11 08:20:38;;;;;;;0.70;0.60;;;15.20;56.90;;;;;;5011824;28;20652;-60
2022/06/11 08:23:10;;;;;;;1.38;0.65;;;15.20;56.90;;;;;;5011105;28;20205;-63
2022/06/11 08:25:43;;;;;;;1.50;1.05;;;15.20;56.90;;;;;;5011514;28;20211;-62
2022/06/11 08:28:16;;;;;;;2.70;2.30;;;15.20;56.80;;;;;;5011296;28;20213;-58
2022/06/11 08:30:48;;;;;;;2.47;1.77;;;15.20;56.70;;;;;;5013905;28;20246;-60
2022/06/11 08:33:19;;;;;;;1.95;1.58;;;15.20;56.70;;;;;;5010645;28;20208;-60
2022/06/11 08:35:50;;;;;;;1.75;1.52;;;15.10;56.90;;;;;;5011380;28;20229;-60
2022/06/11 08:38:21;;;;;;;3.00;1.17;;;15.20;57.20;;;;;;5011668;28;20223;-60
2022/06/11 08:40:55;;;;;;;3.28;1.40;;;15.20;57.40;;;;;;5011779;28;20196;-60
2022/06/11 08:43:30;;;;;;;1.73;1.50;;;15.20;57.80;;;;;;5011714;28;20722;-60
2022/06/11 08:46:04;;;;;;;1.40;1.30;;;15.20;57.90;;;;;;5011079;28;20196;-60
2022/06/11 08:48:45;;;;;;;1.58;0.90;;;15.20;58.00;;;;;;5009056;28;20221;-59
2022/06/11 08:51:23;;;;;;;1.95;1.40;;;15.20;58.10;;;;;;5010954;28;20252;-59
2022/06/11 08:53:55;;;;;;;1.20;1.10;;;15.30;58.20;;;;;;5011088;28;20196;-58
2022/06/11 08:56:35;;;;;;;2.05;1.52;;;15.30;58.30;;;;;;5011203;28;20925;-58
2022/06/11 08:59:30;;;;;;;1.83;1.30;;;15.30;58.40;;;;;;5011495;28;20934;-60
2022/06/11 09:02:18;;;;;;;1.63;1.52;;;15.30;58.40;;;;;;5008453;28;20203;-61
2022/06/11 09:05:06;;;;;;;1.30;1.20;;;15.30;58.40;;;;;;5010083;28;20200;-59
2022/06/11 09:07:53;;;;;;;1.83;1.45;;;15.30;58.40;;;;;;5010960;28;20578;-59
2022/06/11 09:10:45;;;;;;;2.42;1.30;;;15.40;58.40;;;;;;5011229;28;20196;-61
2022/06/11 09:13:38;;;;;;;1.20;1.08;;;15.40;58.40;;;;;;5011325;28;20201;-58
2022/06/11 09:16:19;;;;;;;1.38;1.25;;;15.40;58.40;;;;;;5011398;28;20319;-59
2022/06/11 09:19:21;;;;;;;1.40;1.20;;;15.40;58.30;;;;;;5010338;28;20223;-56
2022/06/11 09:22:03;;;;;;;1.60;1.35;;;15.40;58.30;;;;;;5010611;28;20799;-58
2022/06/11 09:24:50;;;;;;;1.52;1.20;;;15.40;58.30;;;;;;5011094;28;20192;-60
2022/06/11 09:27:36;;;;;;;1.95;1.40;;;15.40;58.30;;;;;;5011745;28;20227;-58
2022/06/11 09:30:12;;;;;;;1.23;1.10;;;15.40;58.30;;;;;;5030048;28;20192;-59
2022/06/11 09:32:50;;;;;;;1.65;1.52;;;15.40;58.30;;;;;;5030895;28;20200;-59
2022/06/11 09:35:23;;;;;;;1.33;1.23;;;15.40;58.30;;;;;;5013747;28;20227;-59
2022/06/11 09:38:07;;;;;;;1.20;1.10;;;15.40;58.30;;;;;;5010901;28;20221;-59
2022/06/11 09:40:43;;;;;;;1.38;1.13;;;15.40;58.30;;;;;;5011065;28;20197;-59
2022/06/11 09:43:27;;;;;;;1.45;1.30;;;15.50;58.40;;;;;;5010961;28;20212;-60
2022/06/11 09:46:08;;;;;;;2.20;1.27;;;15.50;58.40;;;;;;5011032;28;20675;-60
2022/06/11 09:48:56;;;;;;;2.03;1.35;;;15.50;58.40;;;;;;5010948;28;20720;-59
2022/06/11 09:51:33;;;;;;;1.45;1.35;;;15.50;58.40;;;;;;4991109;28;20664;-59
2022/06/11 09:54:19;;;;;;;1.67;1.58;;;15.40;58.30;;;;;;4990866;28;20322;-59
2022/06/11 09:56:57;;;;;;;1.65;1.55;;;15.40;58.30;;;;;;4991005;28;20237;-59
2022/06/11 09:59:34;;;;;;;2.00;1.73;;;15.50;58.30;;;;;;4992206;28;20200;-59
2022/06/11 10:02:23;;;;;;;2.05;1.80;;;15.40;58.20;;;;;;4994639;28;20619;-58
2022/06/11 10:04:57;;;;;;;2.38;1.90;;;15.50;58.20;;;;;;5004752;28;20247;-60
2022/06/11 10:07:31;;;;;;;2.40;2.13;;;15.50;58.20;;;;;;5014142;28;20220;-59
2022/06/11 10:10:08;;;;;;;2.40;2.00;;;15.50;58.20;;;;;;5014055;28;20211;-61
2022/06/11 10:12:46;;;;;;;2.45;2.05;;;15.50;58.20;;;;;;5013738;28;20192;-61
2022/06/11 10:15:20;;;;;;;3.50;2.30;;;15.50;58.20;;;;;;5013714;28;20728;-59
2022/06/11 10:18:00;;;;;;;2.65;2.45;;;15.50;58.20;;;;;;5013195;28;20231;-59
2022/06/11 10:20:35;;;;;;;2.95;2.47;;;15.50;58.20;;;;;;5013499;28;20283;-59
2022/06/11 10:23:13;;;;;;;3.30;2.40;;;15.40;58.10;;;;;;5013848;28;20695;-59
2022/06/11 10:25:52;;;;;;;2.90;2.30;;;15.50;58.20;;;;;;5013870;28;20205;-60
2022/06/11 10:28:27;;;;;;;3.22;2.58;;;15.50;58.20;;;;;;5013966;28;20221;-60
2022/06/11 10:31:02;;;;;;;3.58;2.50;;;15.50;58.20;;;;;;5016351;28;20477;-59
2022/06/11 10:33:39;;;;;;;2.90;2.28;;;15.40;58.20;;;;;;5013425;28;20208;-59
2022/06/11 10:36:12;;;;;;;3.33;2.50;;;15.50;58.20;;;;;;5012989;28;20220;-60
2022/06/11 10:38:52;;;;;;;3.28;2.30;;;15.40;58.20;;;;;;5013477;28;20731;-60
2022/06/11 10:41:32;;;;;;;3.35;2.20;;;15.40;58.20;;;;;;5013221;28;20200;-59
2022/06/11 10:44:15;;;;;;;3.47;2.47;;;15.50;58.20;;;;;;5013194;28;20205;-58
2022/06/11 10:46:46;;;;;;;2.58;2.33;;;15.50;58.20;;;;;;5013554;28;20204;-59
2022/06/11 10:49:22;;;;;;;3.05;2.20;;;15.40;58.10;;;;;;5012743;28;20196;-60
2022/06/11 10:52:00;;;;;;;3.15;2.20;;;15.40;58.10;;;;;;5013252;28;20670;-59
2022/06/11 10:54:31;;;;;;;3.25;2.38;;;15.40;58.10;;;;;;5013135;28;20225;-60
2022/06/11 10:57:04;;;;;;;2.38;2.17;;;15.40;58.10;;;;;;5013085;28;20235;-60
2022/06/11 10:59:38;;;;;;;3.00;2.35;;;15.40;58.10;;;;;;5013547;28;20211;-60
2022/06/11 11:02:22;;;;;;;2.50;2.30;;;15.40;58.10;;;;;;5013218;28;20197;-60
2022/06/11 11:05:05;;;;;;;3.97;2.30;;;15.30;58.00;;;;;;5012381;28;20219;-64
2022/06/11 11:07:48;;;;;;;3.60;2.33;;;15.30;57.90;;;;;;5013054;28;20231;-64
2022/06/11 11:10:44;;;;;;;2.85;2.40;;;15.30;58.00;;;;;;5012611;28;20197;-64
2022/06/11 11:13:26;;;;;;;3.08;2.25;;;15.30;58.10;;;;;;5013074;28;20662;-64
2022/06/11 11:16:03;;;;;;;3.03;2.17;;;15.30;58.10;;;;;;5013001;28;20221;-65
2022/06/11 11:18:46;;;;;;;2.67;2.20;;;15.30;58.10;;;;;;5013156;28;20224;-63
2022/06/11 11:21:25;;;;;;;2.80;2.05;;;15.20;58.00;;;;;;5015480;28;20205;-63
2022/06/11 11:23:58;;;;;;;2.60;2.20;;;15.30;58.10;;;;;;5013096;28;20205;-64
2022/06/11 11:26:35;;;;;;;3.28;2.42;;;15.30;58.10;;;;;;5013187;28;20204;-63
2022/06/11 11:29:10;;;;;;;2.40;2.00;;;15.20;58.10;;;;;;5013273;28;20316;-62
2022/06/11 11:31:47;;;;;;;2.10;1.90;;;15.20;58.10;;;;;;5013234;28;20331;-61
2022/06/11 11:34:25;;;;;;;2.33;2.03;;;15.20;58.10;;;;;;5012252;28;20196;-61
2022/06/11 11:37:23;;;;;;;2.92;2.20;;;15.20;58.10;;;;;;5009825;28;20235;-61
2022/06/11 11:39:56;;;;;;;2.10;1.90;;;15.20;58.10;;;;;;5012051;28;20197;-66
2022/06/11 11:42:28;;;;;;;2.92;2.15;;;15.20;58.00;;;;;;5012425;28;20200;-61
2022/06/11 11:44:59;;;;;;;2.20;1.90;;;15.20;58.00;;;;;;5012391;28;20193;-64
2022/06/11 11:47:35;;;;;;;2.42;2.05;;;15.20;58.00;;;;;;5012808;28;20223;-64
2022/06/11 11:50:16;;;;;;;2.65;2.00;;;15.20;58.00;;;;;;5022017;28;20197;-62
2022/06/11 11:52:55;;;;;;;2.58;1.90;;;15.10;58.00;;;;;;5005320;28;20544;-66
2022/06/11 11:55:30;;;;;;;2.30;1.98;;;15.10;57.90;;;;;;5007513;28;20231;-61
2022/06/11 11:58:06;;;;;;;2.60;1.95;;;15.10;58.00;;;;;;5012061;28;20223;-65
2022/06/11 12:00:48;;;;;;;4.03;2.15;;;15.10;58.00;;;;;;5011948;28;20204;-65
2022/06/11 12:03:26;;;;;;;1.83;1.73;;;15.10;57.90;;;;;;5011365;28;20224;-64
2022/06/11 12:05:58;;;;;;;3.05;1.75;;;15.10;57.90;;;;;;5011058;28;20205;-65
2022/06/11 12:08:34;;;;;;;1.95;1.73;;;15.10;58.00;;;;;;5008341;28;20210;-66
2022/06/11 12:11:06;;;;;;;2.58;2.10;;;15.10;57.90;;;;;;5003082;28;20668;-65
2022/06/11 12:13:47;;;;;;;2.00;1.80;;;15.10;57.90;;;;;;5011636;28;20196;-60
2022/06/11 12:16:28;;;;;;;2.05;1.70;;;15.10;57.90;;;;;;5011651;28;20712;-65
2022/06/11 12:19:08;;;;;;;2.10;1.90;;;15.00;57.80;;;;;;5012437;28;20714;-65
2022/06/11 12:21:42;;;;;;;1.92;1.70;;;15.00;57.70;;;;;;5010611;28;20223;-66
2022/06/11 12:24:17;;;;;;;2.08;1.52;;;15.00;57.70;;;;;;5013550;28;20200;-67
2022/06/11 12:26:52;;;;;;;2.22;1.70;;;15.00;57.70;;;;;;5011919;28;20652;-66
2022/06/11 12:29:30;;;;;;;1.90;1.70;;;15.00;57.70;;;;;;5011974;28;20204;-66
2022/06/11 12:32:12;;;;;;;1.95;1.55;;;15.00;57.60;;;;;;5011905;28;20199;-66
2022/06/11 12:34:42;;;;;;;1.77;1.45;;;15.00;57.60;;;;;;5011157;28;20548;-62
2022/06/11 12:37:23;;;;;;;1.83;1.63;;;14.90;57.60;;;;;;5011468;28;20240;-66
2022/06/11 12:40:03;;;;;;;2.75;1.83;;;15.00;57.60;;;;;;5011471;28;20683;-64
2022/06/11 12:42:43;;;;;;;2.33;1.83;;;14.90;57.60;;;;;;5011486;28;20292;-66
2022/06/11 12:45:22;;;;;;;1.90;1.45;;;14.90;57.50;;;;;;5011316;28;20649;-65
2022/06/11 12:48:18;;;;;;;1.92;1.70;;;14.90;57.50;;;;;;5011259;28;20212;-65
2022/06/11 12:50:58;;;;;;;1.42;1.33;;;14.90;57.60;;;;;;5010766;28;20193;-65
2022/06/11 12:53:44;;;;;;;2.13;1.85;;;14.90;57.60;;;;;;5011175;28;20211;-65
2022/06/11 12:56:39;;;;;;;2.10;1.90;;;14.90;57.60;;;;;;5011369;28;20221;-65
2022/06/11 12:59:36;;;;;;;2.25;1.40;;;14.90;57.60;;;;;;5011235;28;20667;-67
2022/06/11 13:02:22;;;;;;;3.00;1.88;;;14.90;57.50;;;;;;5011329;28;20595;-63
2022/06/11 13:05:19;;;;;;;4.20;2.22;;;14.80;57.50;;;;;;5010402;28;20201;-64
2022/06/11 13:07:58;;;;;;;2.28;2.00;;;14.80;57.40;;;;;;4991796;28;20225;-65
2022/06/11 13:10:40;;;;;;;2.88;2.03;;;14.80;57.40;;;;;;4991495;28;20834;-66
2022/06/11 13:13:45;;;;;;;2.95;1.60;;;14.80;57.50;;;;;;5013086;28;20714;-65
2022/06/11 13:16:21;;;;;;;3.00;1.85;;;14.80;57.50;;;;;;5008837;28;20203;-62
2022/06/11 13:19:06;;;;;;;3.55;1.92;;;14.80;57.40;;;;;;5010796;28;20217;-65
2022/06/11 13:21:45;;;;;;;3.88;2.00;;;14.70;57.40;;;;;;5010306;28;20275;-63
2022/06/11 13:24:26;;;;;;;6.07;2.40;;;14.70;57.40;;;;;;5011215;28;20196;-64
2022/06/11 13:27:04;;;;;;;5.28;2.08;;;14.70;57.40;;;;;;5010544;28;20200;-64
2022/06/11 13:29:49;;;;;;;5.75;2.83;;;14.70;57.40;;;;;;5010380;28;20200;-64
2022/06/11 13:32:31;;;;;;;5.45;2.38;;;14.70;57.40;;;;;;5011048;28;20235;-65
2022/06/11 13:35:22;;;;;;;5.57;2.35;;;14.70;57.40;;;;;;5012702;28;20196;-61